createdAt,value
2022-12-03T00:01:31.984Z,2.20
2022-12-03T00:03:59.922Z,1.40
2022-12-03T00:06:32.931Z,1.60
2022-12-03T00:09:02.377Z,2.00
2022-12-03T00:11:30.155Z,2.10
2022-12-03T00:13:57.982Z,2.70
2022-12-03T00:16:25.927Z,2.00
2022-12-03T00:18:55.114Z,1.60
2022-12-03T00:21:24.658Z,1.80
2022-12-03T00:23:52.965Z,1.70
2022-12-03T00:26:20.799Z,2.00
2022-12-03T00:28:48.665Z,2.10
2022-12-03T00:31:16.563Z,2.00
2022-12-03T00:33:44.367Z,2.40
2022-12-03T00:36:13.466Z,2.10
2022-12-03T00:38:41.280Z,2.30
2022-12-03T00:41:09.154Z,1.90
2022-12-03T00:43:37.024Z,2.00
2022-12-03T00:46:04.864Z,1.80
2022-12-03T00:48:32.639Z,1.80
2022-12-03T00:51:00.462Z,1.70
2022-12-03T00:53:29.618Z,1.80
2022-12-03T00:55:57.452Z,1.80
2022-12-03T00:58:25.258Z,1.40
2022-12-03T01:00:53.128Z,1.50
2022-12-03T01:03:20.886Z,1.70
2022-12-03T01:05:48.698Z,1.60
2022-12-03T01:08:16.569Z,1.50
2022-12-03T01:10:45.714Z,1.30
2022-12-03T01:13:13.482Z,1.50
2022-12-03T01:15:41.229Z,1.70
2022-12-03T01:18:09.073Z,1.80
2022-12-03T01:20:38.505Z,1.70
2022-12-03T01:23:06.382Z,1.90
2022-12-03T01:25:34.185Z,1.80
2022-12-03T01:28:03.472Z,1.70
2022-12-03T01:30:51.296Z,1.50
2022-12-03T01:33:18.151Z,1.60
2022-12-03T01:35:45.940Z,1.40
2022-12-03T01:38:13.721Z,1.20
2022-12-03T01:40:41.635Z,1.40
2022-12-03T01:43:10.794Z,2.00
2022-12-03T01:45:38.689Z,1.80
2022-12-03T01:48:06.886Z,1.40
2022-12-03T01:50:35.155Z,1.70
2022-12-03T01:53:04.913Z,1.60
2022-12-03T01:55:32.810Z,1.60
2022-12-03T01:58:02.832Z,1.70
2022-12-03T02:00:32.345Z,1.60
2022-12-03T02:03:02.367Z,1.60
2022-12-03T02:05:32.474Z,1.80
2022-12-03T02:08:01.746Z,1.20
2022-12-03T02:10:35.189Z,1.40
2022-12-03T02:13:07.063Z,1.60
2022-12-03T02:15:36.809Z,1.60
2022-12-03T02:18:05.321Z,1.70
2022-12-03T02:20:37.087Z,1.80
2022-12-03T02:23:14.458Z,1.90
2022-12-03T02:25:43.656Z,1.70
2022-12-03T02:28:11.761Z,1.00
2022-12-03T02:30:40.004Z,1.00
2022-12-03T02:33:08.207Z,1.30
2022-12-03T02:35:38.276Z,0.80
2022-12-03T02:38:13.862Z,1.00
2022-12-03T02:40:44.666Z,1.40
2022-12-03T02:43:14.714Z,1.20
2022-12-03T02:45:45.391Z,1.10
2022-12-03T02:48:17.335Z,1.50
2022-12-03T02:50:49.475Z,1.60
2022-12-03T02:53:20.269Z,1.10
2022-12-03T02:55:50.240Z,1.40
2022-12-03T02:58:18.606Z,0.90
2022-12-03T03:00:47.416Z,1.10
2022-12-03T03:03:16.879Z,1.70
2022-12-03T03:05:45.811Z,1.20
2022-12-03T03:08:14.385Z,1.70
2022-12-03T03:10:44.112Z,1.50
2022-12-03T03:13:15.717Z,2.00
2022-12-03T03:15:44.222Z,1.80
2022-12-03T03:18:13.598Z,1.30
2022-12-03T03:20:42.572Z,1.70
2022-12-03T03:23:17.545Z,1.30
2022-12-03T03:25:47.819Z,1.30
2022-12-03T03:28:17.688Z,1.10
2022-12-03T03:30:45.803Z,1.10
2022-12-03T03:33:15.498Z,1.00
2022-12-03T03:35:44.493Z,1.70
2022-12-03T03:38:14.963Z,0.80
2022-12-03T03:40:43.279Z,1.00
2022-12-03T03:43:11.478Z,1.50
2022-12-03T03:45:40.841Z,1.60
2022-12-03T03:48:08.816Z,1.70
2022-12-03T03:50:36.952Z,1.30
2022-12-03T03:53:06.044Z,0.80
2022-12-03T03:55:34.561Z,1.50
2022-12-03T03:58:02.509Z,1.10
2022-12-03T04:00:31.243Z,0.80
2022-12-03T04:03:00.352Z,1.00
2022-12-03T04:05:29.213Z,0.90
2022-12-03T04:07:58.700Z,0.90
2022-12-03T04:10:44.307Z,1.20
2022-12-03T04:13:12.172Z,0.60
2022-12-03T04:15:40.023Z,0.50
2022-12-03T04:18:26.954Z,0.80
2022-12-03T04:21:14.760Z,0.40
2022-12-03T04:23:41.596Z,1.00
2022-12-03T04:26:26.879Z,1.60
2022-12-03T04:28:54.882Z,1.20
2022-12-03T04:31:40.410Z,0.90
2022-12-03T04:34:27.656Z,0.70
2022-12-03T04:36:55.576Z,1.30
2022-12-03T04:39:23.424Z,1.00
2022-12-03T04:41:51.285Z,1.20
2022-12-03T04:44:35.924Z,0.50
2022-12-03T04:47:07.140Z,1.30
2022-12-03T04:49:37.928Z,1.50
2022-12-03T04:52:06.183Z,1.60
2022-12-03T04:54:34.148Z,1.90
2022-12-03T04:57:02.305Z,1.50
2022-12-03T04:59:30.148Z,1.20
2022-12-03T05:01:58.206Z,2.00
2022-12-03T05:04:26.271Z,1.90
2022-12-03T05:06:55.739Z,2.30
2022-12-03T05:09:23.545Z,2.00
2022-12-03T05:11:51.346Z,1.20
2022-12-03T05:14:19.136Z,0.80
2022-12-03T05:16:46.992Z,1.20
2022-12-03T05:19:14.821Z,0.50
2022-12-03T05:21:42.670Z,0.60
2022-12-03T05:24:11.850Z,0.90
2022-12-03T05:26:39.604Z,0.30
2022-12-03T05:29:07.537Z,0.90
2022-12-03T05:31:35.465Z,1.20
2022-12-03T05:34:03.244Z,0.40
2022-12-03T05:36:31.079Z,1.00
2022-12-03T05:38:58.883Z,0.60
2022-12-03T05:41:45.688Z,1.20
2022-12-03T05:44:17.471Z,1.00
2022-12-03T05:46:48.163Z,1.10
2022-12-03T05:49:15.943Z,1.30
2022-12-03T05:51:44.017Z,1.00
2022-12-03T05:54:11.825Z,1.20
2022-12-03T05:56:41.163Z,1.10
2022-12-03T05:59:08.988Z,1.40
2022-12-03T06:01:36.807Z,1.60
2022-12-03T06:04:04.957Z,1.40
2022-12-03T06:06:32.875Z,1.00
2022-12-03T06:09:00.679Z,0.60
2022-12-03T06:11:29.837Z,1.30
2022-12-03T06:13:59.034Z,1.30
2022-12-03T06:16:26.934Z,1.70
2022-12-03T06:18:54.690Z,1.00
2022-12-03T06:21:22.600Z,0.90
2022-12-03T06:23:50.425Z,1.00
2022-12-03T06:26:18.312Z,1.30
2022-12-03T06:28:47.639Z,1.60
2022-12-03T06:31:16.891Z,1.20
2022-12-03T06:33:44.946Z,1.20
2022-12-03T06:36:12.763Z,0.80
2022-12-03T06:38:40.513Z,0.40
2022-12-03T06:41:08.315Z,0.30
2022-12-03T06:43:36.082Z,0.70
2022-12-03T06:46:03.943Z,1.10
2022-12-03T06:48:33.107Z,1.00
2022-12-03T06:51:00.856Z,1.00
2022-12-03T06:53:28.680Z,0.80
2022-12-03T06:55:56.626Z,1.20
2022-12-03T06:58:24.407Z,0.40
2022-12-03T07:00:52.166Z,0.80
2022-12-03T07:03:20.112Z,1.00
2022-12-03T07:05:49.295Z,0.70
2022-12-03T07:08:17.117Z,0.90
2022-12-03T07:10:44.956Z,0.70
2022-12-03T07:13:12.802Z,0.50
2022-12-03T07:15:40.578Z,0.50
2022-12-03T07:18:08.430Z,0.30
2022-12-03T07:20:36.227Z,0.60
2022-12-03T07:23:05.518Z,0.40
2022-12-03T07:25:33.291Z,0.70
2022-12-03T07:28:01.124Z,0.50
2022-12-03T07:30:28.935Z,0.60
2022-12-03T07:32:56.789Z,0.40
2022-12-03T07:35:24.524Z,0.60
2022-12-03T07:37:52.348Z,0.40
2022-12-03T07:40:21.561Z,0.70
2022-12-03T07:42:49.352Z,0.50
2022-12-03T07:45:17.251Z,0.60
2022-12-03T07:47:45.054Z,1.00
2022-12-03T07:50:13.464Z,1.00
2022-12-03T07:52:41.234Z,1.30
2022-12-03T07:55:10.442Z,1.30
2022-12-03T07:57:39.555Z,1.50
2022-12-03T08:00:08.733Z,1.30
2022-12-03T08:02:36.699Z,0.80
2022-12-03T08:05:04.909Z,0.50
2022-12-03T08:07:32.792Z,0.50
2022-12-03T08:10:00.612Z,1.00
2022-12-03T08:12:40.776Z,0.90
2022-12-03T08:15:15.983Z,1.00
2022-12-03T08:17:45.384Z,0.60
2022-12-03T08:20:16.883Z,0.90
2022-12-03T08:22:47.420Z,1.30
2022-12-03T08:25:20.627Z,0.90
2022-12-03T08:27:48.447Z,1.10
2022-12-03T08:30:18.945Z,1.40
2022-12-03T08:32:47.926Z,1.10
2022-12-03T08:35:22.324Z,0.60
2022-12-03T08:38:02.140Z,0.70
2022-12-03T08:40:35.736Z,0.40
2022-12-03T08:43:08.506Z,0.50
2022-12-03T08:45:42.319Z,0.70
2022-12-03T08:48:36.679Z,0.60
2022-12-03T08:51:12.120Z,0.40
2022-12-03T08:53:46.284Z,0.40
2022-12-03T08:56:21.734Z,0.50
2022-12-03T08:58:52.455Z,0.70
2022-12-03T09:01:32.336Z,0.80
2022-12-03T09:04:15.391Z,0.70
2022-12-03T09:06:43.531Z,0.60
2022-12-03T09:09:11.380Z,0.60
2022-12-03T09:11:39.526Z,0.40
2022-12-03T09:14:07.333Z,0.60
2022-12-03T09:16:36.701Z,0.50
2022-12-03T09:19:04.801Z,0.70
2022-12-03T09:21:32.715Z,1.10
2022-12-03T09:24:00.472Z,0.70
2022-12-03T09:26:28.360Z,0.70
2022-12-03T09:28:56.236Z,1.00
2022-12-03T09:31:24.050Z,0.80
2022-12-03T09:33:53.445Z,0.70
2022-12-03T09:36:21.470Z,0.90
2022-12-03T09:38:49.258Z,1.10
2022-12-03T09:41:17.154Z,0.90
2022-12-03T09:46:33.498Z,0.80
2022-12-03T09:49:03.113Z,0.60
2022-12-03T09:51:33.769Z,0.50
2022-12-03T09:54:02.267Z,1.10
2022-12-03T09:56:30.095Z,1.50
2022-12-03T09:58:57.945Z,1.10
2022-12-03T10:01:30.146Z,1.00
2022-12-03T10:03:59.235Z,0.80
2022-12-03T10:06:28.475Z,0.80
2022-12-03T10:08:57.272Z,1.00
2022-12-03T10:11:27.241Z,0.70
2022-12-03T10:13:57.098Z,0.70
2022-12-03T10:16:26.135Z,0.80
2022-12-03T10:18:56.837Z,0.70
2022-12-03T10:21:30.475Z,0.70
2022-12-03T10:24:21.636Z,0.90
2022-12-03T10:26:51.588Z,0.60
2022-12-03T10:29:22.697Z,0.80
2022-12-03T10:31:57.342Z,0.60
2022-12-03T10:34:26.655Z,0.50
2022-12-03T10:37:11.645Z,0.80
2022-12-03T10:40:00.662Z,0.50
2022-12-03T10:42:29.926Z,0.40
2022-12-03T10:45:10.082Z,0.70
2022-12-03T10:47:37.978Z,0.80
2022-12-03T10:50:15.161Z,0.60
2022-12-03T10:52:45.112Z,0.40
2022-12-03T10:55:15.827Z,0.60
2022-12-03T10:57:45.925Z,0.60
2022-12-03T11:00:18.069Z,0.60
2022-12-03T11:02:47.472Z,0.80
2022-12-03T11:05:28.187Z,0.80
2022-12-03T11:07:57.838Z,0.90
2022-12-03T11:10:26.024Z,0.90
2022-12-03T11:13:29.286Z,0.90
2022-12-03T11:15:57.928Z,0.80
2022-12-03T11:19:00.381Z,0.80
2022-12-03T11:21:28.141Z,0.70
2022-12-03T11:24:21.786Z,0.90
2022-12-03T11:27:20.522Z,0.90
2022-12-03T11:29:54.415Z,1.00
2022-12-03T11:33:06.190Z,0.90
2022-12-03T11:36:06.870Z,0.90
2022-12-03T11:38:53.396Z,0.80
2022-12-03T11:41:34.889Z,0.90
2022-12-03T11:44:31.547Z,1.20
2022-12-03T11:47:13.411Z,1.00
2022-12-03T11:49:48.242Z,0.80
2022-12-03T11:52:31.263Z,0.70
2022-12-03T11:55:04.148Z,0.70
2022-12-03T11:57:37.565Z,0.70
2022-12-03T12:00:10.222Z,0.70
2022-12-03T12:02:38.015Z,0.80
2022-12-03T12:05:28.462Z,0.80
2022-12-03T12:07:57.054Z,0.70
2022-12-03T12:10:42.769Z,0.70
2022-12-03T12:13:49.222Z,0.80
2022-12-03T12:16:39.220Z,0.90
2022-12-03T12:19:36.343Z,0.70
2022-12-03T12:22:18.824Z,0.80
2022-12-03T12:24:51.285Z,0.70
2022-12-03T12:27:21.354Z,0.70
2022-12-03T12:29:55.014Z,0.80
2022-12-03T12:32:27.752Z,0.80
2022-12-03T12:34:58.963Z,0.70
2022-12-03T12:37:32.651Z,0.80
2022-12-03T12:40:02.687Z,0.90
2022-12-03T12:42:33.762Z,1.10
2022-12-03T12:45:14.468Z,1.00
2022-12-03T12:47:48.494Z,1.20
2022-12-03T12:50:16.732Z,0.90
2022-12-03T12:52:51.195Z,0.90
2022-12-03T12:55:19.925Z,0.90
2022-12-03T12:57:47.872Z,0.70
2022-12-03T13:00:19.843Z,0.80
2022-12-03T13:02:51.431Z,0.90
2022-12-03T13:05:19.883Z,0.80
2022-12-03T13:07:48.038Z,0.80
2022-12-03T13:10:36.567Z,1.00
2022-12-03T13:13:21.382Z,0.90
2022-12-03T13:15:53.626Z,0.50
2022-12-03T13:18:40.815Z,0.70
2022-12-03T13:21:26.485Z,0.70
2022-12-03T13:23:56.488Z,0.80
2022-12-03T13:26:36.518Z,1.00
2022-12-03T13:29:15.437Z,0.80
2022-12-03T13:31:50.514Z,1.10
2022-12-03T13:34:21.474Z,0.90
2022-12-03T13:36:56.962Z,0.90
2022-12-03T13:39:30.314Z,1.00
2022-12-03T13:42:16.312Z,1.10
2022-12-03T13:44:46.712Z,1.20
2022-12-03T13:47:19.465Z,1.10
2022-12-03T13:49:52.066Z,0.80
2022-12-03T13:52:22.819Z,0.70
2022-12-03T13:54:53.483Z,0.90
2022-12-03T13:57:21.371Z,0.60
2022-12-03T13:59:49.188Z,0.90
2022-12-03T14:02:18.413Z,1.00
2022-12-03T14:04:46.323Z,0.90
2022-12-03T14:07:14.147Z,0.70
2022-12-03T14:09:42.094Z,0.60
2022-12-03T14:12:30.115Z,0.70
2022-12-03T14:14:58.120Z,0.60
2022-12-03T14:17:42.471Z,0.40
2022-12-03T14:20:11.307Z,0.60
2022-12-03T14:22:39.168Z,1.00
2022-12-03T14:25:08.408Z,0.80
2022-12-03T14:27:36.432Z,0.50
2022-12-03T14:30:04.533Z,0.80
2022-12-03T14:32:32.339Z,0.80
2022-12-03T14:35:05.273Z,0.80
2022-12-03T14:37:36.083Z,0.90
2022-12-03T14:40:04.696Z,1.00
2022-12-03T14:42:32.437Z,1.00
2022-12-03T14:45:00.246Z,1.30
2022-12-03T14:47:28.042Z,1.30
2022-12-03T14:49:56.260Z,0.90
2022-12-03T14:52:25.718Z,1.20
2022-12-03T14:54:53.504Z,0.80
2022-12-03T14:57:21.322Z,1.30
2022-12-03T14:59:49.100Z,1.00
2022-12-03T15:02:16.972Z,1.20
2022-12-03T15:04:44.892Z,1.00
2022-12-03T15:07:12.761Z,0.90
2022-12-03T15:09:41.877Z,0.70
2022-12-03T15:12:09.887Z,0.90
2022-12-03T15:14:38.100Z,0.90
2022-12-03T15:17:05.959Z,0.80
2022-12-03T15:19:34.107Z,1.00
2022-12-03T15:22:01.905Z,0.50
2022-12-03T15:24:29.691Z,0.80
2022-12-03T15:26:58.877Z,0.60
2022-12-03T15:29:26.677Z,0.50
2022-12-03T15:31:54.590Z,0.50
2022-12-03T15:34:23.372Z,0.80
2022-12-03T15:36:51.327Z,0.40
2022-12-03T15:39:19.095Z,0.70
2022-12-03T15:41:47.010Z,0.50
2022-12-03T15:44:16.160Z,0.80
2022-12-03T15:46:43.996Z,0.80
2022-12-03T15:49:11.913Z,0.60
2022-12-03T15:51:39.651Z,0.50
2022-12-03T15:54:07.410Z,0.30
2022-12-03T15:56:37.423Z,0.50
2022-12-03T15:59:05.381Z,0.90
2022-12-03T16:01:34.607Z,1.00
2022-12-03T16:04:02.373Z,0.90
2022-12-03T16:06:30.291Z,0.60
2022-12-03T16:08:58.060Z,0.50
2022-12-03T16:11:25.855Z,0.50
2022-12-03T16:13:53.672Z,0.60
2022-12-03T16:16:21.508Z,0.80
2022-12-03T16:18:50.880Z,0.30
2022-12-03T16:21:23.357Z,0.60
2022-12-03T16:23:54.234Z,0.40
2022-12-03T16:26:22.033Z,0.10
2022-12-03T16:28:49.839Z,0.40
2022-12-03T16:31:18.840Z,0.40
2022-12-03T16:33:46.796Z,0.00
2022-12-03T16:36:15.992Z,0.00
2022-12-03T16:38:44.068Z,0.80
2022-12-03T16:41:11.849Z,0.70
2022-12-03T16:43:39.600Z,0.90
2022-12-03T16:46:23.374Z,0.90
2022-12-03T16:48:51.503Z,0.80
2022-12-03T16:51:20.945Z,0.50
2022-12-03T16:53:49.315Z,1.10
2022-12-03T16:56:17.240Z,0.80
2022-12-03T16:58:45.399Z,0.80
2022-12-03T17:01:13.348Z,0.60
2022-12-03T17:03:42.119Z,0.50
2022-12-03T17:06:10.153Z,0.60
2022-12-03T17:08:41.082Z,0.60
2022-12-03T17:11:12.408Z,0.40
2022-12-03T17:13:40.259Z,0.20
2022-12-03T17:16:09.926Z,0.40
2022-12-03T17:18:37.824Z,0.20
2022-12-03T17:21:06.527Z,0.20
2022-12-03T17:23:34.327Z,0.60
2022-12-03T17:26:03.639Z,0.40
2022-12-03T17:28:31.516Z,0.20
2022-12-03T17:30:59.321Z,0.30
2022-12-03T17:33:27.077Z,0.40
2022-12-03T17:35:54.829Z,0.70
2022-12-03T17:38:22.663Z,0.80
2022-12-03T17:40:50.685Z,0.50
2022-12-03T17:43:19.787Z,0.50
2022-12-03T17:45:47.549Z,0.50
2022-12-03T17:48:15.573Z,0.70
2022-12-03T17:50:43.315Z,0.40
2022-12-03T17:53:11.584Z,0.20
2022-12-03T17:55:44.675Z,0.30
2022-12-03T17:58:12.996Z,0.20
2022-12-03T18:00:42.441Z,0.80
2022-12-03T18:03:10.339Z,1.10
2022-12-03T18:05:38.218Z,0.70
2022-12-03T18:08:06.829Z,0.70
2022-12-03T18:10:34.708Z,0.40
2022-12-03T18:13:02.588Z,0.10
2022-12-03T18:15:30.955Z,0.00
2022-12-03T18:18:00.184Z,0.60
2022-12-03T18:20:28.163Z,0.40
2022-12-03T18:22:56.122Z,0.20
2022-12-03T18:25:23.916Z,0.20
2022-12-03T18:27:51.759Z,0.60
2022-12-03T18:30:19.698Z,0.20
2022-12-03T18:32:47.714Z,0.20
2022-12-03T18:35:17.072Z,0.50
2022-12-03T18:37:45.063Z,0.20
2022-12-03T18:40:19.934Z,0.00
2022-12-03T18:42:47.946Z,0.30
2022-12-03T18:45:16.762Z,0.30
2022-12-03T18:47:45.296Z,0.60
2022-12-03T18:50:13.824Z,0.10
2022-12-03T18:52:43.042Z,0.00
2022-12-03T18:55:17.384Z,0.10
2022-12-03T18:57:45.406Z,0.80
2022-12-03T19:00:14.770Z,0.90
2022-12-03T19:05:31.000Z,1.20
2022-12-03T19:08:00.328Z,0.50
2022-12-03T19:10:28.216Z,0.20
2022-12-03T19:12:56.019Z,0.50
2022-12-03T19:15:23.956Z,0.30
2022-12-03T19:17:52.257Z,0.50
2022-12-03T19:20:20.207Z,0.60
2022-12-03T19:22:48.022Z,0.30
2022-12-03T19:25:17.292Z,0.20
2022-12-03T19:27:45.130Z,0.40
2022-12-03T19:30:13.786Z,0.60
2022-12-03T19:32:41.581Z,0.30
2022-12-03T19:35:11.128Z,0.70
2022-12-03T19:37:39.066Z,0.40
2022-12-03T19:40:10.087Z,0.40
2022-12-03T19:42:39.747Z,0.20
2022-12-03T19:45:08.560Z,0.40
2022-12-03T19:47:36.591Z,0.50
2022-12-03T19:50:04.870Z,0.60
2022-12-03T19:52:35.142Z,0.20
2022-12-03T19:55:03.011Z,0.10
2022-12-03T19:57:30.743Z,0.40
2022-12-03T20:00:01.015Z,0.50
2022-12-03T20:02:28.824Z,0.70
2022-12-03T20:04:56.747Z,0.30
2022-12-03T20:07:24.567Z,0.40
2022-12-03T20:09:52.799Z,0.00
2022-12-03T20:12:20.811Z,0.20
2022-12-03T20:14:49.836Z,0.00
2022-12-03T20:17:19.018Z,0.00
2022-12-03T20:19:46.920Z,0.40
2022-12-03T20:22:14.638Z,0.10
2022-12-03T20:24:42.505Z,0.20
2022-12-03T20:27:10.259Z,0.30
2022-12-03T20:29:38.052Z,0.00
2022-12-03T20:32:07.083Z,0.20
2022-12-03T20:34:36.347Z,-0.10
2022-12-03T20:37:04.338Z,0.20
2022-12-03T20:39:32.115Z,0.10
2022-12-03T20:42:00.054Z,0.30
2022-12-03T20:44:27.919Z,0.90
2022-12-03T20:46:55.818Z,0.70
2022-12-03T20:49:25.692Z,0.80
2022-12-03T20:52:02.699Z,0.80
2022-12-03T20:54:32.924Z,0.40
2022-12-03T20:57:00.724Z,0.40
2022-12-03T20:59:28.536Z,0.70
2022-12-03T21:01:56.528Z,0.40
2022-12-03T21:04:24.404Z,0.20
2022-12-03T21:06:53.747Z,0.20
2022-12-03T21:09:21.542Z,0.50
2022-12-03T21:11:49.722Z,0.30
2022-12-03T21:14:20.133Z,0.50
2022-12-03T21:19:37.348Z,0.30
2022-12-03T21:22:06.987Z,0.50
2022-12-03T21:24:35.192Z,0.40
2022-12-03T21:27:03.055Z,0.30
2022-12-03T21:29:30.874Z,0.60
2022-12-03T21:31:58.652Z,0.70
2022-12-03T21:34:30.109Z,0.60
2022-12-03T21:37:02.050Z,0.30
2022-12-03T21:39:31.201Z,0.10
2022-12-03T21:42:34.007Z,0.10
2022-12-03T21:44:46.909Z,0.20
2022-12-03T21:47:14.844Z,0.10
2022-12-03T21:49:43.114Z,0.20
2022-12-03T21:52:11.113Z,0.40
2022-12-03T21:54:40.224Z,0.10
2022-12-03T21:57:07.988Z,0.40
2022-12-03T21:59:35.780Z,0.20
2022-12-03T22:02:03.881Z,0.20
2022-12-03T22:04:31.740Z,0.20
2022-12-03T22:06:59.507Z,0.40
2022-12-03T22:09:35.941Z,0.60
2022-12-03T22:12:05.421Z,0.40
2022-12-03T22:14:33.216Z,0.40
2022-12-03T22:17:01.050Z,0.30
2022-12-03T22:19:28.823Z,0.20
2022-12-03T22:21:56.566Z,0.40
2022-12-03T22:24:24.394Z,0.30
2022-12-03T22:26:54.533Z,0.30
2022-12-03T22:29:23.600Z,0.20
2022-12-03T22:31:51.493Z,0.80
2022-12-03T22:34:19.255Z,0.60
2022-12-03T22:36:47.068Z,0.50
2022-12-03T22:39:14.932Z,0.50
2022-12-03T22:41:42.741Z,0.50
2022-12-03T22:44:10.558Z,0.90
2022-12-03T22:46:39.980Z,0.50
2022-12-03T22:49:07.974Z,0.40
2022-12-03T22:51:36.415Z,0.40
2022-12-03T22:54:05.344Z,0.60
2022-12-03T22:56:33.722Z,0.70
2022-12-03T23:01:40.212Z,0.40
2022-12-03T23:04:09.828Z,0.50
2022-12-03T23:06:38.687Z,0.60
2022-12-03T23:09:07.726Z,0.20
2022-12-03T23:11:36.164Z,0.40
2022-12-03T23:14:04.500Z,0.30
2022-12-03T23:16:33.952Z,0.60
2022-12-03T23:19:03.937Z,0.60
2022-12-03T23:21:34.215Z,0.30
2022-12-03T23:24:03.329Z,0.50
2022-12-03T23:26:31.174Z,0.50
2022-12-03T23:28:58.955Z,0.60
2022-12-03T23:31:29.809Z,0.60
2022-12-03T23:33:59.557Z,0.60
2022-12-03T23:36:30.987Z,0.50
2022-12-03T23:38:58.746Z,0.50
2022-12-03T23:41:26.572Z,0.40
2022-12-03T23:43:54.878Z,0.20
2022-12-03T23:46:25.106Z,0.20
2022-12-03T23:48:53.166Z,0.30
2022-12-03T23:51:23.244Z,0.40
2022-12-03T23:53:53.239Z,0.60
2022-12-03T23:56:22.954Z,0.60
2022-12-03T23:58:51.162Z,0.50
